sensor_id;sensor_type;location;lat;lon;timestamp;P1;durP1;ratioP1;P2;durP2;ratioP2
2898;SDS011;1459;50.864;6.438;2022-10-16T00:01:26;4.43;;;2.67;;
2898;SDS011;1459;50.864;6.438;2022-10-16T00:03:55;2.35;;;2.15;;
2898;SDS011;1459;50.864;6.438;2022-10-16T00:06:26;3.17;;;2.50;;
2898;SDS011;1459;50.864;6.438;2022-10-16T00:08:55;3.03;;;2.15;;
2898;SDS011;1459;50.864;6.438;2022-10-16T00:11:23;4.57;;;2.15;;
2898;SDS011;1459;50.864;6.438;2022-10-16T00:13:54;3.00;;;2.33;;
2898;SDS011;1459;50.864;6.438;2022-10-16T00:16:24;3.55;;;1.98;;
2898;SDS011;1459;50.864;6.438;2022-10-16T00:18:51;2.97;;;2.40;;
2898;SDS011;1459;50.864;6.438;2022-10-16T00:21:19;6.25;;;2.30;;
2898;SDS011;1459;50.864;6.438;2022-10-16T00:23:50;4.35;;;2.35;;
2898;SDS011;1459;50.864;6.438;2022-10-16T00:26:18;2.38;;;2.15;;
2898;SDS011;1459;50.864;6.438;2022-10-16T00:28:46;2.50;;;2.30;;
2898;SDS011;1459;50.864;6.438;2022-10-16T00:31:15;2.30;;;2.10;;
2898;SDS011;1459;50.864;6.438;2022-10-16T00:33:43;2.40;;;1.83;;
2898;SDS011;1459;50.864;6.438;2022-10-16T00:36:11;3.67;;;2.20;;
2898;SDS011;1459;50.864;6.438;2022-10-16T00:38:39;4.47;;;3.15;;
2898;SDS011;1459;50.864;6.438;2022-10-16T00:41:07;4.15;;;2.75;;
2898;SDS011;1459;50.864;6.438;2022-10-16T00:43:39;3.45;;;2.80;;
2898;SDS011;1459;50.864;6.438;2022-10-16T00:46:10;3.05;;;2.83;;
2898;SDS011;1459;50.864;6.438;2022-10-16T00:48:47;3.00;;;2.75;;
2898;SDS011;1459;50.864;6.438;2022-10-16T00:51:18;3.03;;;2.72;;
2898;SDS011;1459;50.864;6.438;2022-10-16T00:53:47;3.00;;;2.70;;
2898;SDS011;1459;50.864;6.438;2022-10-16T00:56:15;3.90;;;2.75;;
2898;SDS011;1459;50.864;6.438;2022-10-16T00:58:43;3.78;;;2.60;;
2898;SDS011;1459;50.864;6.438;2022-10-16T01:01:10;4.82;;;3.20;;
2898;SDS011;1459;50.864;6.438;2022-10-16T01:03:39;2.90;;;2.60;;
2898;SDS011;1459;50.864;6.438;2022-10-16T01:06:17;4.80;;;2.90;;
2898;SDS011;1459;50.864;6.438;2022-10-16T01:08:53;3.75;;;2.85;;
2898;SDS011;1459;50.864;6.438;2022-10-16T01:11:27;3.50;;;3.20;;
2898;SDS011;1459;50.864;6.438;2022-10-16T01:14:02;2.63;;;2.42;;
2898;SDS011;1459;50.864;6.438;2022-10-16T01:16:38;3.60;;;2.75;;
2898;SDS011;1459;50.864;6.438;2022-10-16T01:19:13;5.45;;;2.95;;
2898;SDS011;1459;50.864;6.438;2022-10-16T01:21:46;3.53;;;2.88;;
2898;SDS011;1459;50.864;6.438;2022-10-16T01:24:21;5.40;;;2.50;;
2898;SDS011;1459;50.864;6.438;2022-10-16T01:27:02;3.78;;;2.58;;
2898;SDS011;1459;50.864;6.438;2022-10-16T01:29:42;3.17;;;2.50;;
2898;SDS011;1459;50.864;6.438;2022-10-16T01:32:16;3.67;;;2.80;;
2898;SDS011;1459;50.864;6.438;2022-10-16T01:34:48;7.00;;;3.33;;
2898;SDS011;1459;50.864;6.438;2022-10-16T01:37:23;3.47;;;3.17;;
2898;SDS011;1459;50.864;6.438;2022-10-16T01:39:58;3.72;;;2.78;;
2898;SDS011;1459;50.864;6.438;2022-10-16T01:42:30;3.72;;;3.22;;
2898;SDS011;1459;50.864;6.438;2022-10-16T01:45:01;7.72;;;3.75;;
2898;SDS011;1459;50.864;6.438;2022-10-16T01:47:31;7.22;;;3.85;;
2898;SDS011;1459;50.864;6.438;2022-10-16T01:50:00;3.35;;;3.05;;
2898;SDS011;1459;50.864;6.438;2022-10-16T01:52:29;3.72;;;3.40;;
2898;SDS011;1459;50.864;6.438;2022-10-16T01:55:01;3.05;;;2.75;;
2898;SDS011;1459;50.864;6.438;2022-10-16T01:57:32;3.00;;;2.70;;
2898;SDS011;1459;50.864;6.438;2022-10-16T02:00:04;2.75;;;2.50;;
2898;SDS011;1459;50.864;6.438;2022-10-16T02:02:34;2.97;;;2.38;;
2898;SDS011;1459;50.864;6.438;2022-10-16T02:05:05;3.90;;;3.30;;
2898;SDS011;1459;50.864;6.438;2022-10-16T02:07:39;2.75;;;2.55;;
2898;SDS011;1459;50.864;6.438;2022-10-16T02:10:07;3.60;;;2.50;;
2898;SDS011;1459;50.864;6.438;2022-10-16T02:12:37;2.17;;;1.98;;
2898;SDS011;1459;50.864;6.438;2022-10-16T02:15:08;2.72;;;2.10;;
2898;SDS011;1459;50.864;6.438;2022-10-16T02:17:35;2.40;;;2.20;;
2898;SDS011;1459;50.864;6.438;2022-10-16T02:20:03;2.53;;;2.10;;
2898;SDS011;1459;50.864;6.438;2022-10-16T02:22:32;3.22;;;1.90;;
2898;SDS011;1459;50.864;6.438;2022-10-16T02:25:06;3.05;;;1.80;;
2898;SDS011;1459;50.864;6.438;2022-10-16T02:27:41;2.20;;;2.00;;
2898;SDS011;1459;50.864;6.438;2022-10-16T02:30:13;3.42;;;1.88;;
2898;SDS011;1459;50.864;6.438;2022-10-16T02:32:45;3.00;;;2.08;;
2898;SDS011;1459;50.864;6.438;2022-10-16T02:35:15;2.05;;;1.92;;
2898;SDS011;1459;50.864;6.438;2022-10-16T02:37:44;2.15;;;1.75;;
2898;SDS011;1459;50.864;6.438;2022-10-16T02:40:12;2.72;;;2.00;;
2898;SDS011;1459;50.864;6.438;2022-10-16T02:42:41;6.75;;;1.80;;
2898;SDS011;1459;50.864;6.438;2022-10-16T02:45:11;3.00;;;1.58;;
2898;SDS011;1459;50.864;6.438;2022-10-16T02:47:38;2.65;;;1.80;;
2898;SDS011;1459;50.864;6.438;2022-10-16T02:50:05;3.45;;;1.85;;
2898;SDS011;1459;50.864;6.438;2022-10-16T02:52:33;3.55;;;2.00;;
2898;SDS011;1459;50.864;6.438;2022-10-16T02:55:00;3.20;;;1.77;;
2898;SDS011;1459;50.864;6.438;2022-10-16T02:57:27;5.03;;;2.00;;
2898;SDS011;1459;50.864;6.438;2022-10-16T02:59:56;2.35;;;1.60;;
2898;SDS011;1459;50.864;6.438;2022-10-16T03:02:23;2.17;;;1.70;;
2898;SDS011;1459;50.864;6.438;2022-10-16T03:04:50;3.65;;;1.90;;
2898;SDS011;1459;50.864;6.438;2022-10-16T03:07:17;2.10;;;1.35;;
2898;SDS011;1459;50.864;6.438;2022-10-16T03:09:44;2.88;;;1.40;;
2898;SDS011;1459;50.864;6.438;2022-10-16T03:12:11;1.75;;;1.30;;
2898;SDS011;1459;50.864;6.438;2022-10-16T03:14:39;2.03;;;1.85;;
2898;SDS011;1459;50.864;6.438;2022-10-16T03:17:08;1.63;;;1.52;;
2898;SDS011;1459;50.864;6.438;2022-10-16T03:19:35;4.63;;;1.63;;
2898;SDS011;1459;50.864;6.438;2022-10-16T03:22:02;4.90;;;1.70;;
2898;SDS011;1459;50.864;6.438;2022-10-16T03:24:29;3.17;;;1.90;;
2898;SDS011;1459;50.864;6.438;2022-10-16T03:26:56;2.05;;;1.75;;
2898;SDS011;1459;50.864;6.438;2022-10-16T03:29:26;2.88;;;1.90;;
2898;SDS011;1459;50.864;6.438;2022-10-16T03:31:54;2.10;;;1.90;;
2898;SDS011;1459;50.864;6.438;2022-10-16T03:34:23;3.75;;;2.85;;
2898;SDS011;1459;50.864;6.438;2022-10-16T03:36:50;2.55;;;2.22;;
2898;SDS011;1459;50.864;6.438;2022-10-16T03:39:17;2.40;;;2.20;;
2898;SDS011;1459;50.864;6.438;2022-10-16T03:41:45;3.35;;;2.20;;
2898;SDS011;1459;50.864;6.438;2022-10-16T03:44:12;2.95;;;2.30;;
2898;SDS011;1459;50.864;6.438;2022-10-16T03:46:39;2.35;;;2.15;;
2898;SDS011;1459;50.864;6.438;2022-10-16T03:49:07;3.22;;;2.30;;
2898;SDS011;1459;50.864;6.438;2022-10-16T03:51:35;2.50;;;2.30;;
2898;SDS011;1459;50.864;6.438;2022-10-16T03:54:02;2.42;;;2.22;;
2898;SDS011;1459;50.864;6.438;2022-10-16T03:56:29;5.68;;;3.28;;
2898;SDS011;1459;50.864;6.438;2022-10-16T03:58:56;3.25;;;2.90;;
2898;SDS011;1459;50.864;6.438;2022-10-16T04:01:23;4.60;;;2.10;;
2898;SDS011;1459;50.864;6.438;2022-10-16T04:03:50;2.63;;;2.42;;
2898;SDS011;1459;50.864;6.438;2022-10-16T04:06:17;4.70;;;2.53;;
2898;SDS011;1459;50.864;6.438;2022-10-16T04:08:46;2.90;;;2.63;;
2898;SDS011;1459;50.864;6.438;2022-10-16T04:11:13;4.35;;;3.20;;
2898;SDS011;1459;50.864;6.438;2022-10-16T04:13:40;2.70;;;2.50;;
2898;SDS011;1459;50.864;6.438;2022-10-16T04:16:07;4.47;;;2.75;;
2898;SDS011;1459;50.864;6.438;2022-10-16T04:18:35;3.08;;;2.88;;
2898;SDS011;1459;50.864;6.438;2022-10-16T04:21:04;3.25;;;2.40;;
2898;SDS011;1459;50.864;6.438;2022-10-16T04:23:32;2.95;;;2.72;;
2898;SDS011;1459;50.864;6.438;2022-10-16T04:26:01;2.65;;;2.40;;
2898;SDS011;1459;50.864;6.438;2022-10-16T04:28:28;3.10;;;2.80;;
2898;SDS011;1459;50.864;6.438;2022-10-16T04:30:55;5.25;;;2.60;;
2898;SDS011;1459;50.864;6.438;2022-10-16T04:33:22;3.08;;;2.70;;
2898;SDS011;1459;50.864;6.438;2022-10-16T04:35:55;2.78;;;2.58;;
2898;SDS011;1459;50.864;6.438;2022-10-16T04:38:23;2.90;;;2.70;;
2898;SDS011;1459;50.864;6.438;2022-10-16T04:40:50;4.45;;;3.00;;
2898;SDS011;1459;50.864;6.438;2022-10-16T04:43:19;2.85;;;2.60;;
2898;SDS011;1459;50.864;6.438;2022-10-16T04:45:47;2.70;;;2.50;;
2898;SDS011;1459;50.864;6.438;2022-10-16T04:48:16;2.85;;;2.65;;
2898;SDS011;1459;50.864;6.438;2022-10-16T04:50:43;3.92;;;2.40;;
2898;SDS011;1459;50.864;6.438;2022-10-16T04:53:10;4.15;;;2.60;;
2898;SDS011;1459;50.864;6.438;2022-10-16T04:55:38;3.78;;;3.08;;
2898;SDS011;1459;50.864;6.438;2022-10-16T04:58:05;2.80;;;2.47;;
2898;SDS011;1459;50.864;6.438;2022-10-16T05:00:33;2.75;;;2.55;;
2898;SDS011;1459;50.864;6.438;2022-10-16T05:03:01;3.00;;;2.80;;
2898;SDS011;1459;50.864;6.438;2022-10-16T05:05:31;3.10;;;2.78;;
2898;SDS011;1459;50.864;6.438;2022-10-16T05:07:58;3.10;;;2.80;;
2898;SDS011;1459;50.864;6.438;2022-10-16T05:10:25;3.15;;;2.85;;
2898;SDS011;1459;50.864;6.438;2022-10-16T05:12:52;4.05;;;2.80;;
2898;SDS011;1459;50.864;6.438;2022-10-16T05:15:19;3.08;;;2.78;;
2898;SDS011;1459;50.864;6.438;2022-10-16T05:17:53;4.55;;;3.50;;
2898;SDS011;1459;50.864;6.438;2022-10-16T05:20:20;3.30;;;3.00;;
2898;SDS011;1459;50.864;6.438;2022-10-16T05:22:48;3.83;;;3.42;;
2898;SDS011;1459;50.864;6.438;2022-10-16T05:25:15;4.97;;;3.15;;
2898;SDS011;1459;50.864;6.438;2022-10-16T05:27:43;3.65;;;3.35;;
2898;SDS011;1459;50.864;6.438;2022-10-16T05:30:13;2.90;;;2.60;;
2898;SDS011;1459;50.864;6.438;2022-10-16T05:32:40;3.85;;;3.35;;
2898;SDS011;1459;50.864;6.438;2022-10-16T05:35:08;5.82;;;4.07;;
2898;SDS011;1459;50.864;6.438;2022-10-16T05:37:35;5.75;;;3.90;;
2898;SDS011;1459;50.864;6.438;2022-10-16T05:40:05;3.55;;;3.25;;
2898;SDS011;1459;50.864;6.438;2022-10-16T05:42:32;6.22;;;4.00;;
2898;SDS011;1459;50.864;6.438;2022-10-16T05:45:00;3.90;;;3.50;;
2898;SDS011;1459;50.864;6.438;2022-10-16T05:47:26;4.80;;;4.30;;
2898;SDS011;1459;50.864;6.438;2022-10-16T05:49:53;4.18;;;3.83;;
2898;SDS011;1459;50.864;6.438;2022-10-16T05:52:22;5.10;;;4.38;;
2898;SDS011;1459;50.864;6.438;2022-10-16T05:54:49;6.32;;;4.00;;
2898;SDS011;1459;50.864;6.438;2022-10-16T05:57:16;4.07;;;3.75;;
2898;SDS011;1459;50.864;6.438;2022-10-16T05:59:43;4.80;;;4.32;;
2898;SDS011;1459;50.864;6.438;2022-10-16T06:02:11;4.78;;;4.28;;
2898;SDS011;1459;50.864;6.438;2022-10-16T06:04:39;5.70;;;4.68;;
2898;SDS011;1459;50.864;6.438;2022-10-16T06:07:06;4.80;;;4.30;;
2898;SDS011;1459;50.864;6.438;2022-10-16T06:09:34;6.97;;;4.18;;
2898;SDS011;1459;50.864;6.438;2022-10-16T06:12:01;6.25;;;4.72;;
2898;SDS011;1459;50.864;6.438;2022-10-16T06:14:29;5.80;;;5.30;;
2898;SDS011;1459;50.864;6.438;2022-10-16T06:16:55;5.65;;;5.15;;
2898;SDS011;1459;50.864;6.438;2022-10-16T06:19:23;6.05;;;4.65;;
2898;SDS011;1459;50.864;6.438;2022-10-16T06:21:50;4.97;;;4.57;;
2898;SDS011;1459;50.864;6.438;2022-10-16T06:24:17;6.68;;;5.45;;
2898;SDS011;1459;50.864;6.438;2022-10-16T06:26:45;5.00;;;4.20;;
2898;SDS011;1459;50.864;6.438;2022-10-16T06:29:12;5.40;;;4.90;;
2898;SDS011;1459;50.864;6.438;2022-10-16T06:31:39;5.30;;;4.80;;
2898;SDS011;1459;50.864;6.438;2022-10-16T06:34:08;6.22;;;4.60;;
2898;SDS011;1459;50.864;6.438;2022-10-16T06:36:36;5.43;;;3.97;;
2898;SDS011;1459;50.864;6.438;2022-10-16T06:39:04;5.07;;;4.38;;
2898;SDS011;1459;50.864;6.438;2022-10-16T06:41:32;3.95;;;3.53;;
2898;SDS011;1459;50.864;6.438;2022-10-16T06:44:01;4.97;;;4.55;;
2898;SDS011;1459;50.864;6.438;2022-10-16T06:46:31;5.57;;;5.00;;
2898;SDS011;1459;50.864;6.438;2022-10-16T06:48:58;6.55;;;3.80;;
2898;SDS011;1459;50.864;6.438;2022-10-16T06:51:25;6.28;;;4.50;;
2898;SDS011;1459;50.864;6.438;2022-10-16T06:53:52;4.78;;;3.78;;
2898;SDS011;1459;50.864;6.438;2022-10-16T06:56:22;6.55;;;3.85;;
2898;SDS011;1459;50.864;6.438;2022-10-16T06:58:50;4.90;;;4.25;;
2898;SDS011;1459;50.864;6.438;2022-10-16T07:01:19;4.28;;;3.88;;
2898;SDS011;1459;50.864;6.438;2022-10-16T07:03:48;3.75;;;3.33;;
2898;SDS011;1459;50.864;6.438;2022-10-16T07:06:16;4.85;;;3.55;;
2898;SDS011;1459;50.864;6.438;2022-10-16T07:08:45;7.70;;;3.22;;
2898;SDS011;1459;50.864;6.438;2022-10-16T07:11:13;6.65;;;3.70;;
2898;SDS011;1459;50.864;6.438;2022-10-16T07:13:41;3.53;;;3.20;;
2898;SDS011;1459;50.864;6.438;2022-10-16T07:16:10;3.17;;;2.85;;
2898;SDS011;1459;50.864;6.438;2022-10-16T07:18:40;5.65;;;3.00;;
2898;SDS011;1459;50.864;6.438;2022-10-16T07:21:10;3.15;;;2.85;;
2898;SDS011;1459;50.864;6.438;2022-10-16T07:23:39;3.70;;;2.53;;
2898;SDS011;1459;50.864;6.438;2022-10-16T07:26:06;3.67;;;2.45;;
2898;SDS011;1459;50.864;6.438;2022-10-16T07:28:36;2.50;;;2.30;;
2898;SDS011;1459;50.864;6.438;2022-10-16T07:31:05;2.55;;;2.35;;
2898;SDS011;1459;50.864;6.438;2022-10-16T07:33:35;2.70;;;2.47;;
2898;SDS011;1459;50.864;6.438;2022-10-16T07:36:05;4.57;;;2.33;;
2898;SDS011;1459;50.864;6.438;2022-10-16T07:38:32;8.35;;;2.60;;
2898;SDS011;1459;50.864;6.438;2022-10-16T07:41:00;3.30;;;2.20;;
2898;SDS011;1459;50.864;6.438;2022-10-16T07:43:28;3.20;;;2.90;;
2898;SDS011;1459;50.864;6.438;2022-10-16T07:45:56;8.25;;;2.85;;
2898;SDS011;1459;50.864;6.438;2022-10-16T07:48:28;3.30;;;2.53;;
2898;SDS011;1459;50.864;6.438;2022-10-16T07:50:56;2.97;;;2.60;;
2898;SDS011;1459;50.864;6.438;2022-10-16T07:53:26;5.22;;;2.42;;
2898;SDS011;1459;50.864;6.438;2022-10-16T07:55:56;2.90;;;2.55;;
2898;SDS011;1459;50.864;6.438;2022-10-16T07:58:25;2.55;;;2.25;;
2898;SDS011;1459;50.864;6.438;2022-10-16T08:00:54;3.40;;;1.90;;
2898;SDS011;1459;50.864;6.438;2022-10-16T08:03:22;2.33;;;2.13;;
2898;SDS011;1459;50.864;6.438;2022-10-16T08:05:50;2.20;;;1.73;;
2898;SDS011;1459;50.864;6.438;2022-10-16T08:08:17;3.28;;;1.80;;
2898;SDS011;1459;50.864;6.438;2022-10-16T08:10:46;3.47;;;2.10;;
2898;SDS011;1459;50.864;6.438;2022-10-16T08:13:13;5.55;;;1.60;;
2898;SDS011;1459;50.864;6.438;2022-10-16T08:15:40;3.17;;;1.60;;
2898;SDS011;1459;50.864;6.438;2022-10-16T08:18:09;2.35;;;1.92;;
2898;SDS011;1459;50.864;6.438;2022-10-16T08:20:36;1.80;;;1.45;;
2898;SDS011;1459;50.864;6.438;2022-10-16T08:23:04;2.17;;;1.40;;
2898;SDS011;1459;50.864;6.438;2022-10-16T08:25:33;5.93;;;1.52;;
2898;SDS011;1459;50.864;6.438;2022-10-16T08:28:04;2.30;;;1.38;;
2898;SDS011;1459;50.864;6.438;2022-10-16T08:30:31;2.00;;;1.25;;
2898;SDS011;1459;50.864;6.438;2022-10-16T08:32:59;3.47;;;1.88;;
2898;SDS011;1459;50.864;6.438;2022-10-16T08:35:26;1.42;;;1.33;;
2898;SDS011;1459;50.864;6.438;2022-10-16T08:37:54;2.40;;;1.33;;
2898;SDS011;1459;50.864;6.438;2022-10-16T08:40:23;2.75;;;1.42;;
2898;SDS011;1459;50.864;6.438;2022-10-16T08:45:55;3.35;;;1.17;;
2898;SDS011;1459;50.864;6.438;2022-10-16T08:48:41;3.08;;;1.20;;
2898;SDS011;1459;50.864;6.438;2022-10-16T08:51:15;2.38;;;0.80;;
2898;SDS011;1459;50.864;6.438;2022-10-16T08:53:48;2.65;;;1.10;;
2898;SDS011;1459;50.864;6.438;2022-10-16T08:56:20;2.33;;;1.00;;
2898;SDS011;1459;50.864;6.438;2022-10-16T08:58:49;3.45;;;1.30;;
2898;SDS011;1459;50.864;6.438;2022-10-16T09:01:18;2.33;;;1.10;;
2898;SDS011;1459;50.864;6.438;2022-10-16T09:06:53;2.38;;;1.17;;
2898;SDS011;1459;50.864;6.438;2022-10-16T09:09:31;1.63;;;0.90;;
2898;SDS011;1459;50.864;6.438;2022-10-16T09:12:12;1.67;;;1.00;;
2898;SDS011;1459;50.864;6.438;2022-10-16T09:14:50;1.75;;;1.05;;
2898;SDS011;1459;50.864;6.438;2022-10-16T09:17:27;2.30;;;1.20;;
2898;SDS011;1459;50.864;6.438;2022-10-16T09:20:13;2.30;;;0.70;;
2898;SDS011;1459;50.864;6.438;2022-10-16T09:22:47;1.55;;;0.90;;
2898;SDS011;1459;50.864;6.438;2022-10-16T09:25:20;1.65;;;1.00;;
2898;SDS011;1459;50.864;6.438;2022-10-16T09:27:51;1.20;;;0.70;;
2898;SDS011;1459;50.864;6.438;2022-10-16T09:30:26;3.30;;;1.30;;
2898;SDS011;1459;50.864;6.438;2022-10-16T09:33:09;1.85;;;1.10;;
2898;SDS011;1459;50.864;6.438;2022-10-16T09:35:38;2.10;;;0.90;;
2898;SDS011;1459;50.864;6.438;2022-10-16T09:38:08;4.38;;;1.08;;
2898;SDS011;1459;50.864;6.438;2022-10-16T09:40:47;3.60;;;0.95;;
2898;SDS011;1459;50.864;6.438;2022-10-16T09:43:18;2.05;;;1.05;;
2898;SDS011;1459;50.864;6.438;2022-10-16T09:46:03;1.65;;;0.82;;
2898;SDS011;1459;50.864;6.438;2022-10-16T09:48:32;2.55;;;1.20;;
2898;SDS011;1459;50.864;6.438;2022-10-16T09:51:05;6.10;;;0.90;;
2898;SDS011;1459;50.864;6.438;2022-10-16T09:53:40;2.47;;;0.80;;
2898;SDS011;1459;50.864;6.438;2022-10-16T09:56:09;1.77;;;0.80;;
2898;SDS011;1459;50.864;6.438;2022-10-16T09:58:41;1.92;;;0.70;;
2898;SDS011;1459;50.864;6.438;2022-10-16T10:01:15;4.45;;;1.10;;
2898;SDS011;1459;50.864;6.438;2022-10-16T10:04:04;1.75;;;1.00;;
2898;SDS011;1459;50.864;6.438;2022-10-16T10:07:04;2.20;;;0.73;;
2898;SDS011;1459;50.864;6.438;2022-10-16T10:09:37;1.85;;;1.13;;
2898;SDS011;1459;50.864;6.438;2022-10-16T10:12:16;1.38;;;0.82;;
2898;SDS011;1459;50.864;6.438;2022-10-16T10:14:46;1.33;;;0.73;;
2898;SDS011;1459;50.864;6.438;2022-10-16T10:17:17;1.80;;;0.90;;
2898;SDS011;1459;50.864;6.438;2022-10-16T10:19:50;3.33;;;1.15;;
2898;SDS011;1459;50.864;6.438;2022-10-16T10:22:26;2.75;;;0.80;;
2898;SDS011;1459;50.864;6.438;2022-10-16T10:25:19;2.28;;;0.80;;
2898;SDS011;1459;50.864;6.438;2022-10-16T10:30:47;2.45;;;1.05;;
2898;SDS011;1459;50.864;6.438;2022-10-16T10:33:26;1.83;;;1.10;;
2898;SDS011;1459;50.864;6.438;2022-10-16T10:36:00;1.50;;;1.05;;
2898;SDS011;1459;50.864;6.438;2022-10-16T10:38:50;4.13;;;1.15;;
2898;SDS011;1459;50.864;6.438;2022-10-16T10:41:43;1.40;;;0.80;;
2898;SDS011;1459;50.864;6.438;2022-10-16T10:47:32;2.75;;;1.08;;
2898;SDS011;1459;50.864;6.438;2022-10-16T10:50:14;2.05;;;1.00;;
2898;SDS011;1459;50.864;6.438;2022-10-16T10:52:52;2.45;;;0.90;;
2898;SDS011;1459;50.864;6.438;2022-10-16T10:55:28;2.00;;;0.90;;
2898;SDS011;1459;50.864;6.438;2022-10-16T10:58:08;3.17;;;1.30;;
2898;SDS011;1459;50.864;6.438;2022-10-16T11:01:04;2.15;;;1.20;;
2898;SDS011;1459;50.864;6.438;2022-10-16T11:03:42;1.92;;;0.90;;
2898;SDS011;1459;50.864;6.438;2022-10-16T11:06:26;1.50;;;1.10;;
2898;SDS011;1459;50.864;6.438;2022-10-16T11:08:58;4.00;;;0.95;;
2898;SDS011;1459;50.864;6.438;2022-10-16T11:11:30;4.63;;;1.38;;
2898;SDS011;1459;50.864;6.438;2022-10-16T11:14:02;3.00;;;0.90;;
2898;SDS011;1459;50.864;6.438;2022-10-16T11:16:35;2.08;;;0.80;;
2898;SDS011;1459;50.864;6.438;2022-10-16T11:19:10;1.10;;;0.80;;
2898;SDS011;1459;50.864;6.438;2022-10-16T11:22:02;2.63;;;0.85;;
2898;SDS011;1459;50.864;6.438;2022-10-16T11:24:35;2.63;;;1.00;;
2898;SDS011;1459;50.864;6.438;2022-10-16T11:27:12;1.38;;;0.80;;
2898;SDS011;1459;50.864;6.438;2022-10-16T11:29:52;1.50;;;0.80;;
2898;SDS011;1459;50.864;6.438;2022-10-16T11:32:31;2.65;;;0.80;;
2898;SDS011;1459;50.864;6.438;2022-10-16T11:35:02;2.60;;;0.80;;
2898;SDS011;1459;50.864;6.438;2022-10-16T11:37:40;1.20;;;0.80;;
2898;SDS011;1459;50.864;6.438;2022-10-16T11:40:16;1.20;;;0.80;;
2898;SDS011;1459;50.864;6.438;2022-10-16T11:42:50;1.98;;;0.80;;
2898;SDS011;1459;50.864;6.438;2022-10-16T11:45:26;2.08;;;0.93;;
2898;SDS011;1459;50.864;6.438;2022-10-16T11:48:05;1.27;;;0.80;;
2898;SDS011;1459;50.864;6.438;2022-10-16T11:50:43;1.23;;;0.68;;
2898;SDS011;1459;50.864;6.438;2022-10-16T11:53:28;1.23;;;0.70;;
2898;SDS011;1459;50.864;6.438;2022-10-16T11:56:04;1.70;;;0.80;;
2898;SDS011;1459;50.864;6.438;2022-10-16T11:58:34;2.05;;;1.10;;
2898;SDS011;1459;50.864;6.438;2022-10-16T12:01:11;2.33;;;0.85;;
2898;SDS011;1459;50.864;6.438;2022-10-16T12:03:46;1.30;;;0.65;;
2898;SDS011;1459;50.864;6.438;2022-10-16T12:06:24;3.17;;;1.00;;
2898;SDS011;1459;50.864;6.438;2022-10-16T12:09:01;1.50;;;0.70;;
2898;SDS011;1459;50.864;6.438;2022-10-16T12:11:33;1.70;;;1.30;;
2898;SDS011;1459;50.864;6.438;2022-10-16T12:14:04;4.25;;;0.88;;
2898;SDS011;1459;50.864;6.438;2022-10-16T12:16:54;1.40;;;0.70;;
2898;SDS011;1459;50.864;6.438;2022-10-16T12:19:23;2.25;;;1.70;;
2898;SDS011;1459;50.864;6.438;2022-10-16T12:21:52;1.45;;;0.70;;
2898;SDS011;1459;50.864;6.438;2022-10-16T12:24:29;1.30;;;0.80;;
2898;SDS011;1459;50.864;6.438;2022-10-16T12:27:00;1.90;;;0.75;;
2898;SDS011;1459;50.864;6.438;2022-10-16T12:29:32;2.95;;;0.80;;
2898;SDS011;1459;50.864;6.438;2022-10-16T12:32:02;1.95;;;0.70;;
2898;SDS011;1459;50.864;6.438;2022-10-16T12:34:34;2.70;;;0.90;;
2898;SDS011;1459;50.864;6.438;2022-10-16T12:37:09;3.25;;;0.98;;
2898;SDS011;1459;50.864;6.438;2022-10-16T12:39:43;1.55;;;0.90;;
2898;SDS011;1459;50.864;6.438;2022-10-16T12:42:21;1.60;;;0.90;;
2898;SDS011;1459;50.864;6.438;2022-10-16T12:44:59;2.70;;;0.90;;
2898;SDS011;1459;50.864;6.438;2022-10-16T12:47:46;3.75;;;1.15;;
2898;SDS011;1459;50.864;6.438;2022-10-16T12:50:27;3.85;;;1.00;;
2898;SDS011;1459;50.864;6.438;2022-10-16T12:52:57;4.00;;;0.90;;
2898;SDS011;1459;50.864;6.438;2022-10-16T12:55:26;2.13;;;0.90;;
2898;SDS011;1459;50.864;6.438;2022-10-16T12:58:15;1.20;;;0.70;;
2898;SDS011;1459;50.864;6.438;2022-10-16T13:00:56;2.47;;;0.90;;
2898;SDS011;1459;50.864;6.438;2022-10-16T13:03:38;3.20;;;1.05;;
2898;SDS011;1459;50.864;6.438;2022-10-16T13:06:18;2.50;;;1.05;;
2898;SDS011;1459;50.864;6.438;2022-10-16T13:09:07;2.22;;;1.00;;
2898;SDS011;1459;50.864;6.438;2022-10-16T13:11:52;2.50;;;1.00;;
2898;SDS011;1459;50.864;6.438;2022-10-16T13:14:33;1.77;;;1.00;;
2898;SDS011;1459;50.864;6.438;2022-10-16T13:17:22;1.70;;;0.70;;
2898;SDS011;1459;50.864;6.438;2022-10-16T13:19:59;2.33;;;0.93;;
2898;SDS011;1459;50.864;6.438;2022-10-16T13:22:39;2.20;;;0.98;;
2898;SDS011;1459;50.864;6.438;2022-10-16T13:25:17;1.73;;;1.00;;
2898;SDS011;1459;50.864;6.438;2022-10-16T13:27:54;2.60;;;0.95;;
2898;SDS011;1459;50.864;6.438;2022-10-16T13:30:23;2.78;;;1.13;;
2898;SDS011;1459;50.864;6.438;2022-10-16T13:32:54;2.13;;;0.80;;
2898;SDS011;1459;50.864;6.438;2022-10-16T13:35:30;4.30;;;0.90;;
2898;SDS011;1459;50.864;6.438;2022-10-16T13:38:08;3.28;;;0.80;;
2898;SDS011;1459;50.864;6.438;2022-10-16T13:40:50;1.95;;;1.00;;
2898;SDS011;1459;50.864;6.438;2022-10-16T13:43:20;2.03;;;0.90;;
2898;SDS011;1459;50.864;6.438;2022-10-16T13:45:58;2.80;;;0.85;;
2898;SDS011;1459;50.864;6.438;2022-10-16T13:48:27;1.52;;;0.80;;
2898;SDS011;1459;50.864;6.438;2022-10-16T13:50:58;1.52;;;0.80;;
2898;SDS011;1459;50.864;6.438;2022-10-16T13:53:26;2.78;;;1.05;;
2898;SDS011;1459;50.864;6.438;2022-10-16T13:55:56;2.20;;;0.90;;
2898;SDS011;1459;50.864;6.438;2022-10-16T13:58:29;5.78;;;1.10;;
2898;SDS011;1459;50.864;6.438;2022-10-16T14:00:57;4.25;;;0.90;;
2898;SDS011;1459;50.864;6.438;2022-10-16T14:03:26;2.30;;;1.05;;
2898;SDS011;1459;50.864;6.438;2022-10-16T14:05:54;4.28;;;0.90;;
2898;SDS011;1459;50.864;6.438;2022-10-16T14:08:24;4.43;;;1.10;;
2898;SDS011;1459;50.864;6.438;2022-10-16T14:10:53;7.63;;;1.98;;
2898;SDS011;1459;50.864;6.438;2022-10-16T14:13:23;4.07;;;1.30;;
2898;SDS011;1459;50.864;6.438;2022-10-16T14:15:57;3.95;;;1.20;;
2898;SDS011;1459;50.864;6.438;2022-10-16T14:18:28;2.80;;;0.90;;
2898;SDS011;1459;50.864;6.438;2022-10-16T14:21:02;4.45;;;1.20;;
2898;SDS011;1459;50.864;6.438;2022-10-16T14:23:32;4.30;;;1.20;;
2898;SDS011;1459;50.864;6.438;2022-10-16T14:31:39;4.25;;;1.10;;
2898;SDS011;1459;50.864;6.438;2022-10-16T14:34:26;7.30;;;1.52;;
2898;SDS011;1459;50.864;6.438;2022-10-16T14:36:57;6.70;;;1.27;;
2898;SDS011;1459;50.864;6.438;2022-10-16T14:39:29;6.13;;;1.02;;
2898;SDS011;1459;50.864;6.438;2022-10-16T14:41:57;9.02;;;1.20;;
2898;SDS011;1459;50.864;6.438;2022-10-16T14:44:28;5.10;;;1.00;;
2898;SDS011;1459;50.864;6.438;2022-10-16T14:47:06;2.85;;;1.17;;
2898;SDS011;1459;50.864;6.438;2022-10-16T14:49:35;5.05;;;1.30;;
2898;SDS011;1459;50.864;6.438;2022-10-16T14:52:07;7.90;;;1.30;;
2898;SDS011;1459;50.864;6.438;2022-10-16T14:54:36;3.75;;;1.02;;
2898;SDS011;1459;50.864;6.438;2022-10-16T14:57:04;3.13;;;0.95;;
2898;SDS011;1459;50.864;6.438;2022-10-16T14:59:33;3.97;;;0.88;;
2898;SDS011;1459;50.864;6.438;2022-10-16T15:02:09;3.63;;;1.20;;
2898;SDS011;1459;50.864;6.438;2022-10-16T15:04:46;3.78;;;1.23;;
2898;SDS011;1459;50.864;6.438;2022-10-16T15:07:16;2.33;;;0.90;;
2898;SDS011;1459;50.864;6.438;2022-10-16T15:09:45;2.28;;;1.00;;
2898;SDS011;1459;50.864;6.438;2022-10-16T15:12:13;2.25;;;0.90;;
2898;SDS011;1459;50.864;6.438;2022-10-16T15:14:44;5.95;;;1.20;;
2898;SDS011;1459;50.864;6.438;2022-10-16T15:17:14;3.00;;;0.80;;
2898;SDS011;1459;50.864;6.438;2022-10-16T15:19:41;4.85;;;1.42;;
2898;SDS011;1459;50.864;6.438;2022-10-16T15:22:12;4.05;;;1.17;;
2898;SDS011;1459;50.864;6.438;2022-10-16T15:24:39;3.05;;;1.08;;
2898;SDS011;1459;50.864;6.438;2022-10-16T15:27:07;3.72;;;0.98;;
2898;SDS011;1459;50.864;6.438;2022-10-16T15:29:35;1.85;;;0.90;;
2898;SDS011;1459;50.864;6.438;2022-10-16T15:32:03;3.90;;;1.23;;
2898;SDS011;1459;50.864;6.438;2022-10-16T15:34:31;6.47;;;1.08;;
2898;SDS011;1459;50.864;6.438;2022-10-16T15:36:58;4.60;;;1.00;;
2898;SDS011;1459;50.864;6.438;2022-10-16T15:39:29;2.42;;;1.00;;
2898;SDS011;1459;50.864;6.438;2022-10-16T15:41:56;2.53;;;1.10;;
2898;SDS011;1459;50.864;6.438;2022-10-16T15:44:23;3.50;;;1.15;;
2898;SDS011;1459;50.864;6.438;2022-10-16T15:46:54;5.40;;;0.90;;
2898;SDS011;1459;50.864;6.438;2022-10-16T15:49:27;2.72;;;1.00;;
2898;SDS011;1459;50.864;6.438;2022-10-16T15:51:54;2.55;;;1.23;;
2898;SDS011;1459;50.864;6.438;2022-10-16T15:54:23;4.07;;;0.95;;
2898;SDS011;1459;50.864;6.438;2022-10-16T15:56:50;3.42;;;0.80;;
2898;SDS011;1459;50.864;6.438;2022-10-16T15:59:17;2.50;;;0.80;;